Time;durP1;ratioP1;P1;durP2;ratioP2;P2;SDS_P1;SDS_P2;PMS_P1;PMS_P2;Temp;Humidity;BMP_temperature;BMP_pressure;BME280_temperature;BME280_humidity;BME280_pressure;Samples;Min_cycle;Max_cycle;Signal;HPM_P1;HPM_P2
2023/01/21 00:01:17;;;;;;;22.80;12.50;;;;;;;7.07;100.00;100201.39;107151;1251;72786;-68
2023/01/21 00:03:45;;;;;;;21.50;11.90;;;;;;;7.10;100.00;100204.68;107183;1253;60434;-74
2023/01/21 00:06:14;;;;;;;20.40;11.60;;;;;;;7.18;100.00;100200.33;107205;1255;63198;-70
2023/01/21 00:08:41;;;;;;;20.10;11.00;;;;;;;7.21;100.00;100195.61;107204;1245;59116;-70
2023/01/21 00:11:15;;;;;;;23.00;11.30;;;;;;;7.22;100.00;100191.58;107200;1252;59033;-70
2023/01/21 00:13:43;;;;;;;22.30;11.60;;;;;;;7.24;100.00;100190.61;107084;1244;62087;-72
2023/01/21 00:16:12;;;;;;;26.30;12.30;;;;;;;7.28;100.00;100197.58;107253;1252;60754;-71
2023/01/21 00:18:40;;;;;;;19.90;12.00;;;;;;;7.33;100.00;100195.89;107150;1249;69650;-71
2023/01/21 00:21:09;;;;;;;19.00;11.60;;;;;;;7.31;100.00;100194.98;107170;1245;74089;-68
2023/01/21 00:23:37;;;;;;;24.40;11.70;;;;;;;7.32;100.00;100192.84;107100;1247;59160;-69
2023/01/21 00:26:07;;;;;;;18.60;11.00;;;;;;;7.30;100.00;100196.23;107109;1247;60671;-68
2023/01/21 00:28:36;;;;;;;21.50;11.10;;;;;;;7.33;100.00;100197.23;107190;1244;72983;-69
2023/01/21 00:31:07;;;;;;;19.80;11.30;;;;;;;7.37;100.00;100195.91;107138;1244;71701;-69
2023/01/21 00:33:36;;;;;;;22.10;11.20;;;;;;;7.37;100.00;100188.34;107111;1250;69873;-69
2023/01/21 00:36:12;;;;;;;18.20;10.20;;;;;;;7.39;100.00;100188.38;107140;1254;74124;-71
2023/01/21 00:38:40;;;;;;;21.10;10.30;;;;;;;7.38;100.00;100183.21;107205;1246;58942;-69
2023/01/21 00:41:12;;;;;;;25.10;11.30;;;;;;;7.38;100.00;100183.08;107156;1244;60484;-70
2023/01/21 00:43:41;;;;;;;21.00;11.90;;;;;;;7.40;100.00;100178.09;107225;1244;74032;-71
2023/01/21 00:46:10;;;;;;;20.00;10.90;;;;;;;7.38;100.00;100173.39;107210;1245;71767;-69
2023/01/21 00:48:39;;;;;;;17.60;10.40;;;;;;;7.42;100.00;100165.98;107243;1246;59507;-71
2023/01/21 00:51:08;;;;;;;17.80;10.40;;;;;;;7.42;100.00;100161.14;107163;1244;74046;-71
2023/01/21 00:53:40;;;;;;;20.50;10.30;;;;;;;7.41;100.00;100159.14;107210;1246;62696;-70
2023/01/21 00:56:11;;;;;;;18.70;9.80;;;;;;;7.38;100.00;100172.15;107128;1248;59378;-71
2023/01/21 00:58:42;;;;;;;17.50;9.30;;;;;;;7.37;100.00;100179.50;107166;1245;73818;-71
2023/01/21 01:01:19;;;;;;;20.30;10.50;;;;;;;7.38;100.00;100173.70;107161;1247;73445;-73
2023/01/21 01:03:48;;;;;;;21.70;11.60;;;;;;;7.39;100.00;100175.55;107182;1251;70831;-73
2023/01/21 01:06:20;;;;;;;20.00;11.10;;;;;;;7.41;100.00;100166.36;107267;1256;73104;-72
2023/01/21 01:08:49;;;;;;;20.20;10.20;;;;;;;7.44;100.00;100164.10;107343;1248;63340;-71
2023/01/21 01:11:20;;;;;;;21.50;11.00;;;;;;;7.46;100.00;100158.81;107327;1248;60729;-71
2023/01/21 01:13:48;;;;;;;16.90;10.10;;;;;;;7.46;100.00;100155.18;107246;1248;73133;-71
2023/01/21 01:16:16;;;;;;;18.50;10.80;;;;;;;7.46;100.00;100156.02;107520;1250;72798;-70
2023/01/21 01:18:44;;;;;;;19.80;10.30;;;;;;;7.42;100.00;100155.43;107487;1248;59603;-71
2023/01/21 01:21:15;;;;;;;19.30;11.10;;;;;;;7.40;100.00;100157.14;107541;1245;62753;-73
2023/01/21 01:23:44;;;;;;;18.10;10.90;;;;;;;7.41;100.00;100153.91;107480;1246;59459;-73
2023/01/21 01:26:16;;;;;;;23.90;11.60;;;;;;;7.38;100.00;100157.38;107677;1254;60718;-72
2023/01/21 01:28:44;;;;;;;19.50;10.70;;;;;;;7.36;100.00;100159.80;107575;1245;73175;-70
2023/01/21 01:31:16;;;;;;;19.00;10.10;;;;;;;7.35;100.00;100165.59;107308;1248;71778;-71
2023/01/21 01:33:44;;;;;;;18.60;11.30;;;;;;;7.39;100.00;100159.05;107242;1248;70404;-70
2023/01/21 01:36:24;;;;;;;19.40;10.60;;;;;;;7.36;100.00;100155.49;107300;1246;62934;-72
2023/01/21 01:38:53;;;;;;;19.50;9.70;;;;;;;7.38;100.00;100152.19;107185;1246;62215;-70
2023/01/21 01:41:28;;;;;;;16.60;9.90;;;;;;;7.39;100.00;100147.64;107213;1248;60770;-71
2023/01/21 01:43:58;;;;;;;20.10;10.50;;;;;;;7.43;100.00;100144.27;107244;1244;63415;-73
2023/01/21 01:46:30;;;;;;;16.90;10.10;;;;;;;7.44;100.00;100142.48;107327;1248;61353;-73
2023/01/21 01:49:11;;;;;;;18.20;10.20;;;;;;;7.47;100.00;100145.38;107409;1245;68788;-70
2023/01/21 01:52:00;;;;;;;17.90;10.40;;;;;;;7.46;100.00;100149.92;107211;1248;63893;-70
2023/01/21 01:54:37;;;;;;;18.00;9.70;;;;;;;7.52;100.00;100150.09;107162;1244;58527;-71
2023/01/21 01:57:10;;;;;;;20.30;10.50;;;;;;;7.59;100.00;100144.54;107139;1250;59325;-70
2023/01/21 01:59:39;;;;;;;19.60;10.40;;;;;;;7.64;100.00;100144.56;107154;1249;73885;-69
2023/01/21 02:02:13;;;;;;;18.90;10.30;;;;;;;7.62;100.00;100145.67;107070;1244;61154;-71
2023/01/21 02:04:50;;;;;;;19.90;10.00;;;;;;;7.63;100.00;100145.84;107152;1244;71320;-71
2023/01/21 02:07:21;;;;;;;22.70;11.40;;;;;;;7.61;100.00;100145.44;107047;1256;75110;-69
2023/01/21 02:09:50;;;;;;;20.50;10.90;;;;;;;7.58;100.00;100146.52;107134;1255;62487;-71
2023/01/21 02:12:18;;;;;;;20.10;10.70;;;;;;;7.56;100.00;100150.33;107144;1248;61762;-71
2023/01/21 02:14:47;;;;;;;21.20;9.90;;;;;;;7.57;100.00;100158.69;107084;1244;74032;-71
2023/01/21 02:17:35;;;;;;;25.40;11.10;;;;;;;7.58;100.00;100163.98;107179;1256;62672;-70
2023/01/21 02:20:46;;;;;;;19.60;10.10;;;;;;;7.61;100.00;100162.30;107201;1248;59410;-69
2023/01/21 02:23:57;;;;;;;20.10;10.00;;;;;;;7.64;100.00;100166.91;107195;1244;74053;-69
2023/01/21 02:27:05;;;;;;;22.00;11.10;;;;;;;7.57;100.00;100160.84;107271;1248;62827;-71
2023/01/21 02:30:14;;;;;;;22.70;11.10;;;;;;;7.61;100.00;100163.29;107458;1254;58945;-68
2023/01/21 02:33:19;;;;;;;22.90;11.10;;;;;;;7.63;100.00;100158.33;107181;1245;63135;-71
2023/01/21 02:36:09;;;;;;;20.50;11.10;;;;;;;7.66;100.00;100152.90;107113;1246;61201;-71
2023/01/21 02:39:02;;;;;;;22.30;11.40;;;;;;;7.67;100.00;100149.35;107086;1245;59860;-69
2023/01/21 02:41:54;;;;;;;24.20;11.10;;;;;;;7.58;100.00;100135.63;107186;1244;63242;-70
2023/01/21 02:44:40;;;;;;;22.60;10.40;;;;;;;7.55;100.00;100133.76;107284;1244;58910;-71
2023/01/21 02:47:19;;;;;;;21.20;10.20;;;;;;;7.49;100.00;100135.55;107234;1246;59011;-70
2023/01/21 02:50:05;;;;;;;21.10;10.40;;;;;;;7.50;100.00;100141.39;107284;1255;62290;-70
2023/01/21 02:52:33;;;;;;;22.20;11.10;;;;;;;7.50;100.00;100149.48;107395;1244;70420;-72
2023/01/21 02:55:03;;;;;;;24.10;10.70;;;;;;;7.51;100.00;100153.80;107440;1248;60029;-71
2023/01/21 02:57:41;;;;;;;21.50;10.70;;;;;;;7.48;100.00;100156.72;107473;1246;62438;-72
2023/01/21 03:00:24;;;;;;;22.90;11.30;;;;;;;7.46;100.00;100153.95;107268;1244;60941;-70
2023/01/21 03:03:25;;;;;;;19.20;9.80;;;;;;;7.44;100.00;100157.15;107225;1245;60861;-70
2023/01/21 03:06:29;;;;;;;23.50;10.90;;;;;;;7.47;100.00;100163.95;107250;1244;74003;-70
2023/01/21 03:09:24;;;;;;;20.40;11.10;;;;;;;7.46;100.00;100170.23;107403;1244;71800;-69
2023/01/21 03:12:07;;;;;;;22.40;10.40;;;;;;;7.47;100.00;100169.83;107259;1251;61104;-69
2023/01/21 03:18:01;;;;;;;22.90;10.70;;;;;;;7.44;100.00;100182.81;107253;1244;59059;-69
2023/01/21 03:20:48;;;;;;;23.00;10.70;;;;;;;7.46;100.00;100184.80;107062;1244;59056;-67
2023/01/21 03:23:34;;;;;;;20.70;10.60;;;;;;;7.48;100.00;100190.02;107122;1244;62580;-70
2023/01/21 03:26:06;;;;;;;20.40;9.90;;;;;;;7.50;100.00;100193.31;107090;1244;71774;-69
2023/01/21 03:28:40;;;;;;;23.60;10.10;;;;;;;7.54;100.00;100188.77;106967;1245;60331;-70
2023/01/21 03:31:18;;;;;;;22.90;9.80;;;;;;;7.54;100.00;100192.21;106955;1244;73480;-69
2023/01/21 03:33:51;;;;;;;18.80;9.60;;;;;;;7.56;100.00;100187.74;106935;1246;63013;-72
2023/01/21 03:36:47;;;;;;;19.50;9.40;;;;;;;7.55;100.00;100186.95;106999;1245;58957;-70
2023/01/21 03:39:21;;;;;;;27.60;9.80;;;;;;;7.56;100.00;100185.11;107145;1256;62590;-70
2023/01/21 03:41:49;;;;;;;21.00;9.90;;;;;;;7.60;100.00;100188.54;107229;1244;60752;-72
2023/01/21 03:44:17;;;;;;;15.30;8.40;;;;;;;7.63;100.00;100191.27;107210;1245;68918;-69
2023/01/21 03:47:04;;;;;;;15.60;8.30;;;;;;;7.75;99.80;100193.68;107235;1255;73360;-70
2023/01/21 03:49:55;;;;;;;17.80;8.60;;;;;;;7.77;99.62;100187.84;107231;1244;59152;-69
2023/01/21 03:52:25;;;;;;;15.80;8.50;;;;;;;7.86;99.30;100187.93;107269;1244;59074;-69
2023/01/21 03:54:53;;;;;;;18.00;8.20;;;;;;;7.85;98.32;100186.93;107150;1244;73733;-69
2023/01/21 03:57:21;;;;;;;15.80;7.70;;;;;;;7.85;97.41;100192.50;107253;1244;61454;-70
2023/01/21 03:59:49;;;;;;;16.00;7.70;;;;;;;7.83;97.30;100199.39;107331;1245;69696;-70
2023/01/21 04:02:19;;;;;;;14.30;7.60;;;;;;;7.81;97.18;100208.21;107270;1245;74426;-70
2023/01/21 04:04:48;;;;;;;14.80;8.60;;;;;;;7.77;97.97;100208.16;107278;1245;64213;-70
2023/01/21 04:07:15;;;;;;;12.50;7.10;;;;;;;7.82;97.54;100210.42;107306;1254;59021;-70
2023/01/21 04:09:44;;;;;;;8.30;4.60;;;;;;;7.85;95.51;100211.23;107257;1255;62413;-68
2023/01/21 04:12:12;;;;;;;7.70;4.10;;;;;;;7.80;92.17;100209.64;107144;1256;71269;-69
2023/01/21 04:14:39;;;;;;;8.10;3.90;;;;;;;7.87;91.16;100214.37;107306;1247;70844;-70
2023/01/21 04:17:08;;;;;;;4.40;2.60;;;;;;;7.77;88.36;100210.42;107272;1246;63221;-69
2023/01/21 04:19:35;;;;;;;2.90;2.30;;;;;;;7.67;87.33;100213.69;107307;1244;58987;-69
2023/01/21 04:22:03;;;;;;;4.00;2.60;;;;;;;7.66;87.49;100227.61;107419;1245;60065;-69
2023/01/21 04:24:30;;;;;;;3.30;2.10;;;;;;;7.63;86.89;100229.71;107228;1245;73123;-70
2023/01/21 04:27:01;;;;;;;4.00;2.80;;;;;;;7.64;86.93;100238.98;107326;1246;62086;-71
2023/01/21 04:29:29;;;;;;;3.10;2.30;;;;;;;7.61;87.24;100242.13;107350;1255;69861;-69
2023/01/21 04:31:56;;;;;;;3.70;2.80;;;;;;;7.56;87.05;100249.58;107178;1246;74168;-71
2023/01/21 04:34:24;;;;;;;4.50;3.00;;;;;;;7.50;86.98;100250.02;107211;1246;58693;-69
2023/01/21 04:36:52;;;;;;;5.30;3.00;;;;;;;7.45;86.66;100259.17;107329;1244;59009;-71
2023/01/21 04:39:20;;;;;;;3.70;2.90;;;;;;;7.37;86.88;100257.78;107296;1245;73727;-69
2023/01/21 04:41:47;;;;;;;4.20;3.20;;;;;;;7.27;87.32;100260.88;107298;1245;62253;-71
2023/01/21 04:44:33;;;;;;;4.50;3.60;;;;;;;7.21;87.82;100263.38;104437;1278;600457;-69
2023/01/21 04:47:02;;;;;;;4.30;3.90;;;;;;;7.18;87.77;100273.44;106983;1251;59016;-70
2023/01/21 04:49:31;;;;;;;4.80;3.30;;;;;;;7.17;88.13;100282.17;106978;1259;58282;-69
2023/01/21 04:52:00;;;;;;;9.10;6.70;;;;;;;7.22;88.39;100289.45;107018;1259;60700;-69
2023/01/21 04:54:29;;;;;;;5.50;4.10;;;;;;;7.26;88.80;100297.83;106988;1252;62559;-69
2023/01/21 04:56:58;;;;;;;4.70;4.00;;;;;;;7.27;88.48;100300.07;107026;1258;59321;-69
2023/01/21 04:59:27;;;;;;;6.60;4.00;;;;;;;7.22;88.61;100300.17;106904;1248;73210;-69
2023/01/21 05:01:56;;;;;;;15.40;5.10;;;;;;;7.11;88.76;100299.13;107173;1248;60822;-70
2023/01/21 05:04:25;;;;;;;5.30;4.70;;;;;;;7.03;89.19;100300.38;107137;1248;61226;-70
2023/01/21 05:06:55;;;;;;;7.00;5.50;;;;;;;6.90;88.82;100289.91;107396;1247;71728;-70
2023/01/21 05:09:24;;;;;;;7.00;6.30;;;;;;;6.75;88.69;100282.73;107226;1248;61122;-72
2023/01/21 05:11:53;;;;;;;7.30;6.50;;;;;;;6.66;89.09;100286.26;107019;1258;58996;-73
2023/01/21 05:14:22;;;;;;;8.10;7.10;;;;;;;6.52;89.67;100297.16;107165;1258;62946;-73
2023/01/21 05:16:51;;;;;;;8.00;7.20;;;;;;;6.43;90.08;100306.92;107128;1248;59102;-71
2023/01/21 05:19:20;;;;;;;7.20;6.40;;;;;;;6.38;90.39;100310.33;107087;1248;59192;-69
2023/01/21 05:21:49;;;;;;;8.30;7.50;;;;;;;6.30;90.95;100305.99;107134;1258;61671;-69
2023/01/21 05:24:18;;;;;;;9.80;7.60;;;;;;;6.34;90.91;100310.73;107126;1248;60878;-70
2023/01/21 05:26:48;;;;;;;10.80;7.50;;;;;;;6.37;90.67;100319.35;107124;1258;59455;-69
2023/01/21 05:29:17;;;;;;;9.40;8.50;;;;;;;6.29;90.63;100327.09;107096;1248;64312;-71
2023/01/21 05:31:46;;;;;;;9.10;7.90;;;;;;;6.20;91.00;100331.98;107068;1248;59100;-70
2023/01/21 05:34:15;;;;;;;10.50;9.40;;;;;;;6.22;91.17;100343.45;107114;1248;60589;-69
2023/01/21 05:36:44;;;;;;;25.70;10.40;;;;;;;6.22;91.19;100350.39;107066;1248;72768;-71
2023/01/21 05:39:14;;;;;;;18.20;10.50;;;;;;;6.34;91.74;100362.42;107043;1248;71549;-72
2023/01/21 05:41:42;;;;;;;20.00;9.70;;;;;;;6.35;90.96;100373.79;107034;1248;70662;-72
2023/01/21 05:44:11;;;;;;;17.30;12.40;;;;;;;6.39;90.60;100388.98;107008;1247;64336;-72
2023/01/21 05:46:40;;;;;;;10.40;8.30;;;;;;;6.36;90.47;100407.27;106986;1247;59041;-71
2023/01/21 05:49:10;;;;;;;10.60;9.50;;;;;;;6.34;90.66;100417.28;107056;1259;61139;-72
2023/01/21 05:51:39;;;;;;;13.20;10.30;;;;;;;6.36;90.92;100430.10;106926;1247;63721;-72
2023/01/21 05:54:08;;;;;;;14.80;10.10;;;;;;;6.33;90.60;100437.42;107142;1257;62706;-73
2023/01/21 05:56:37;;;;;;;15.50;12.60;;;;;;;6.40;90.29;100442.89;107119;1248;59378;-74
2023/01/21 05:59:08;;;;;;;14.30;10.60;;;;;;;6.29;90.48;100442.27;107165;1248;62734;-72
2023/01/21 06:01:37;;;;;;;13.00;10.50;;;;;;;6.24;90.61;100458.83;107132;1247;61673;-72
2023/01/21 06:04:06;;;;;;;19.10;12.50;;;;;;;6.30;90.49;100470.61;106896;1247;60735;-72
2023/01/21 06:06:35;;;;;;;12.30;10.70;;;;;;;6.23;90.55;100480.73;106965;1247;61851;-71
2023/01/21 06:09:04;;;;;;;15.10;11.40;;;;;;;6.23;90.10;100485.55;106987;1247;61091;-72
2023/01/21 06:11:33;;;;;;;29.50;13.20;;;;;;;6.13;90.17;100494.42;107085;1247;59500;-71
2023/01/21 06:14:02;;;;;;;15.10;11.70;;;;;;;6.14;90.48;100496.45;107152;1248;62664;-73
2023/01/21 06:16:31;;;;;;;18.10;12.50;;;;;;;6.14;90.33;100490.05;107134;1248;58933;-73
2023/01/21 06:19:00;;;;;;;20.20;11.40;;;;;;;6.18;90.04;100485.85;107015;1247;61665;-71
2023/01/21 06:21:29;;;;;;;16.50;13.10;;;;;;;6.09;89.79;100491.90;106927;1248;72373;-69
2023/01/21 06:23:59;;;;;;;55.00;15.30;;;;;;;6.12;89.41;100488.96;106843;1247;72257;-73
2023/01/21 06:26:28;;;;;;;46.70;13.30;;;;;;;6.07;89.37;100487.66;106922;1248;61295;-72
2023/01/21 06:28:57;;;;;;;20.00;11.00;;;;;;;6.04;89.28;100497.55;106770;1249;62490;-71
2023/01/21 06:31:26;;;;;;;34.80;13.60;;;;;;;6.18;88.50;100505.37;106857;1248;59091;-70
2023/01/21 06:33:55;;;;;;;13.80;11.80;;;;;;;5.98;88.61;100499.61;106824;1259;60653;-71
2023/01/21 06:36:24;;;;;;;13.60;9.40;;;;;;;6.03;87.93;100526.29;106815;1248;71781;-71
2023/01/21 06:38:53;;;;;;;14.80;11.20;;;;;;;6.15;87.10;100538.95;106693;1249;71558;-69
2023/01/21 06:41:22;;;;;;;10.40;7.40;;;;;;;6.05;86.06;100549.49;106663;1250;69998;-69
2023/01/21 06:43:51;;;;;;;10.00;7.50;;;;;;;6.00;84.75;100555.69;106801;1251;73972;-69
2023/01/21 06:46:21;;;;;;;14.70;10.90;;;;;;;5.87;84.92;100555.67;106881;1255;62725;-72
2023/01/21 06:48:50;;;;;;;20.50;11.10;;;;;;;5.52;86.29;100555.83;106789;1248;60544;-71
2023/01/21 06:51:19;;;;;;;96.20;18.00;;;;;;;5.54;86.29;100555.57;106894;1248;72680;-70
2023/01/21 06:53:48;;;;;;;30.90;11.80;;;;;;;5.56;85.88;100555.63;106929;1248;61520;-71
2023/01/21 06:56:18;;;;;;;155.90;23.00;;;;;;;5.45;86.67;100553.63;106789;1247;71256;-72
2023/01/21 06:58:47;;;;;;;20.30;10.40;;;;;;;5.45;86.16;100555.88;106828;1248;74269;-70
2023/01/21 07:01:19;;;;;;;16.80;11.00;;;;;;;5.47;85.98;100561.83;106944;1247;61624;-72
2023/01/21 07:03:48;;;;;;;25.40;12.00;;;;;;;5.48;85.70;100571.09;106916;1246;61161;-71
2023/01/21 07:06:17;;;;;;;177.70;23.30;;;;;;;5.42;86.21;100573.47;106955;1247;73108;-71
2023/01/21 07:08:46;;;;;;;33.10;12.00;;;;;;;5.63;87.30;100585.14;106663;1248;71532;-73
2023/01/21 07:11:15;;;;;;;46.60;13.60;;;;;;;5.74;85.09;100590.77;106932;1255;69597;-73
2023/01/21 07:13:44;;;;;;;15.70;9.50;;;;;;;5.77;83.91;100596.83;106877;1249;72973;-72
2023/01/21 07:16:13;;;;;;;14.60;10.00;;;;;;;5.70;83.20;100595.80;106828;1251;64210;-73
2023/01/21 07:18:41;;;;;;;52.50;14.40;;;;;;;5.73;84.54;100596.66;106938;1248;61979;-73
2023/01/21 07:21:10;;;;;;;66.90;14.00;;;;;;;5.73;84.06;100593.96;106866;1260;62016;-72
2023/01/21 07:23:39;;;;;;;32.00;17.60;;;;;;;5.76;84.09;100587.38;106854;1250;60901;-73
2023/01/21 07:26:08;;;;;;;65.20;14.40;;;;;;;5.69;82.62;100589.31;106871;1252;69731;-71
2023/01/21 07:28:37;;;;;;;101.40;17.00;;;;;;;5.70;83.01;100596.02;106761;1248;71611;-73
2023/01/21 07:31:06;;;;;;;107.60;17.60;;;;;;;5.65;81.95;100598.67;106850;1251;61373;-72
2023/01/21 07:33:35;;;;;;;18.90;9.40;;;;;;;5.62;81.68;100600.89;107247;1248;57408;-74
2023/01/21 07:36:05;;;;;;;14.00;8.30;;;;;;;5.60;81.46;100603.92;107121;1253;62689;-71
2023/01/21 07:38:34;;;;;;;35.40;10.50;;;;;;;5.64;81.73;100613.09;107629;1247;60867;-79
2023/01/21 07:41:03;;;;;;;13.80;9.00;;;;;;;5.66;81.31;100624.71;107760;1248;69694;-77
2023/01/21 07:43:32;;;;;;;14.90;9.00;;;;;;;5.66;81.14;100629.24;107246;1247;74971;-78
2023/01/21 07:46:01;;;;;;;17.50;9.40;;;;;;;5.78;80.97;100634.42;107270;1248;60864;-75
2023/01/21 07:48:29;;;;;;;63.50;13.70;;;;;;;5.86;80.35;100639.55;107209;1249;59124;-76
2023/01/21 07:50:59;;;;;;;46.40;11.90;;;;;;;5.91;79.79;100638.96;107303;1248;62148;-76
2023/01/21 07:53:28;;;;;;;15.50;8.80;;;;;;;5.93;78.77;100643.17;107261;1259;72181;-77
2023/01/21 07:55:57;;;;;;;72.90;15.10;;;;;;;6.10;79.51;100649.69;107005;1254;69922;-75
2023/01/21 07:58:25;;;;;;;24.90;9.70;;;;;;;6.27;78.62;100658.45;107005;1247;65583;-76
2023/01/21 08:00:54;;;;;;;38.90;11.60;;;;;;;6.44;78.51;100664.92;107189;1248;59004;-74
2023/01/21 08:03:24;;;;;;;20.10;8.70;;;;;;;6.43;77.78;100676.41;107021;1247;59085;-76
2023/01/21 08:05:53;;;;;;;24.30;10.30;;;;;;;6.62;77.53;100684.89;106969;1250;72655;-74
2023/01/21 08:08:22;;;;;;;42.50;11.30;;;;;;;6.68;75.74;100688.35;107041;1247;70715;-76
2023/01/21 08:10:54;;;;;;;17.30;8.30;;;;;;;6.74;75.35;100689.05;107082;1248;70558;-75
2023/01/21 08:13:23;;;;;;;191.40;26.70;;;;;;;6.81;75.95;100695.20;106928;1250;63122;-76
2023/01/21 08:15:58;;;;;;;154.50;23.10;;;;;;;6.97;75.07;100700.36;106950;1251;59068;-77
2023/01/21 08:18:27;;;;;;;39.80;11.20;;;;;;;7.19;74.37;100703.39;107041;1248;60445;-76
2023/01/21 08:20:57;;;;;;;125.70;17.90;;;;;;;7.19;73.61;100712.79;106966;1256;72887;-75
2023/01/21 08:23:26;;;;;;;22.10;9.70;;;;;;;7.12;73.00;100715.36;107050;1249;72227;-77
2023/01/21 08:25:55;;;;;;;90.00;16.70;;;;;;;7.11;72.95;100720.83;106855;1247;70342;-75
2023/01/21 08:28:23;;;;;;;523.30;63.20;;;;;;;7.16;73.62;100734.75;107025;1247;65358;-75
2023/01/21 08:30:52;;;;;;;62.80;13.80;;;;;;;7.25;73.21;100740.30;107124;1257;60941;-75
2023/01/21 08:33:21;;;;;;;467.90;68.60;;;;;;;7.25;73.11;100738.20;107080;1260;58296;-77
2023/01/21 08:35:50;;;;;;;29.00;10.60;;;;;;;7.32;72.24;100741.45;107044;1260;61396;-76
2023/01/21 08:38:19;;;;;;;24.20;8.60;;;;;;;7.33;72.29;100744.34;107018;1248;61602;-76
2023/01/21 08:40:48;;;;;;;41.50;9.70;;;;;;;7.40;72.22;100745.12;107007;1247;60847;-77
2023/01/21 08:43:17;;;;;;;185.40;20.00;;;;;;;7.42;72.14;100746.41;106912;1251;63433;-78
2023/01/21 08:45:46;;;;;;;126.90;16.60;;;;;;;7.46;72.16;100754.48;107064;1251;60181;-78
2023/01/21 08:48:15;;;;;;;169.40;20.70;;;;;;;7.52;72.13;100754.64;107079;1247;61648;-78
2023/01/21 08:50:44;;;;;;;69.50;13.80;;;;;;;7.54;71.36;100755.23;106956;1251;73183;-76
2023/01/21 08:53:13;;;;;;;18.40;8.30;;;;;;;7.58;71.19;100755.34;107150;1254;72541;-76
2023/01/21 08:55:42;;;;;;;18.90;8.70;;;;;;;7.62;71.74;100751.98;107156;1248;70812;-76
2023/01/21 08:58:10;;;;;;;31.80;10.10;;;;;;;7.56;70.18;100751.63;107154;1247;73461;-76
2023/01/21 09:00:40;;;;;;;36.40;9.80;;;;;;;7.51;70.76;100756.79;107067;1249;59179;-77
2023/01/21 09:03:15;;;;;;;10.50;6.50;;;;;;;7.62;70.84;100758.54;107167;1251;59103;-76
2023/01/21 09:05:46;;;;;;;10.40;5.60;;;;;;;7.58;69.69;100758.45;107772;1248;72859;-76
2023/01/21 09:08:14;;;;;;;11.90;7.20;;;;;;;7.46;69.73;100757.62;107623;1242;73429;-76
2023/01/21 09:11:02;;;;;;;59.90;10.50;;;;;;;7.39;71.21;100762.70;107796;1241;62868;-76
2023/01/21 09:13:37;;;;;;;78.20;13.00;;;;;;;7.51;70.60;100773.27;107789;1240;73023;-76
2023/01/21 09:16:17;;;;;;;65.10;11.30;;;;;;;7.58;71.02;100771.61;107737;1241;58659;-75
2023/01/21 09:18:46;;;;;;;12.30;6.90;;;;;;;7.77;70.47;100779.58;107627;1242;60362;-76
2023/01/21 09:21:16;;;;;;;14.50;8.40;;;;;;;7.75;68.96;100782.63;107756;1238;62669;-77
2023/01/21 09:23:45;;;;;;;22.60;8.80;;;;;;;7.75;68.85;100794.93;107653;1238;71339;-75
2023/01/21 09:26:20;;;;;;;16.90;8.90;;;;;;;7.76;69.29;100795.91;107657;1238;70047;-78
2023/01/21 09:28:57;;;;;;;77.10;12.40;;;;;;;7.87;69.44;100800.95;107522;1241;63745;-76
2023/01/21 09:31:28;;;;;;;14.20;8.40;;;;;;;8.00;68.31;100809.55;107724;1241;60379;-78
2023/01/21 09:34:02;;;;;;;50.90;11.60;;;;;;;8.01;68.15;100804.07;107630;1243;59059;-76
2023/01/21 09:36:37;;;;;;;77.60;12.90;;;;;;;8.06;67.94;100805.73;107759;1242;62955;-77
2023/01/21 09:39:06;;;;;;;31.90;9.30;;;;;;;8.11;67.58;100811.81;107521;1244;61591;-75
2023/01/21 09:41:41;;;;;;;17.50;8.40;;;;;;;8.24;68.89;100817.95;107670;1241;60000;-76
2023/01/21 09:44:35;;;;;;;14.20;8.20;;;;;;;8.40;68.01;100822.39;107642;1238;73807;-78
2023/01/21 09:47:26;;;;;;;9.50;5.20;;;;;;;8.53;66.51;100840.85;107536;1242;60021;-76
2023/01/21 09:50:19;;;;;;;131.10;16.40;;;;;;;8.46;66.96;100833.12;108002;1245;61813;-79
2023/01/21 09:53:00;;;;;;;63.10;11.50;;;;;;;8.84;67.56;100828.72;107789;1241;73913;-77
2023/01/21 09:55:46;;;;;;;26.00;8.60;;;;;;;8.89;66.19;100822.11;107734;1250;61978;-77
2023/01/21 09:58:45;;;;;;;21.90;8.10;;;;;;;8.86;66.03;100819.20;107574;1244;60306;-78
2023/01/21 10:01:30;;;;;;;38.00;9.00;;;;;;;8.93;66.14;100809.55;107563;1248;73527;-76
2023/01/21 10:04:01;;;;;;;29.50;7.80;;;;;;;9.12;65.54;100817.02;107586;1247;61847;-78
2023/01/21 10:06:59;;;;;;;23.80;8.80;;;;;;;9.22;66.17;100821.92;108193;1240;59060;-81
2023/01/21 10:10:21;;;;;;;13.00;7.80;;;;;;;9.27;64.62;100819.48;108037;1241;71944;-79
2023/01/21 10:13:31;;;;;;;13.30;7.80;;;;;;;9.28;64.56;100816.27;108274;1238;72639;-79
2023/01/21 10:16:47;;;;;;;17.70;8.20;;;;;;;9.39;63.97;100829.70;109017;1238;70238;-78
2023/01/21 10:19:52;;;;;;;11.10;6.50;;;;;;;9.28;63.99;100833.85;110109;1238;63002;31
2023/01/21 10:23:42;;;;;;;19.40;7.90;;;;;;;9.24;63.59;100831.15;109513;1240;58348;-82
2023/01/21 10:26:13;;;;;;;15.60;7.70;;;;;;;9.23;63.65;100822.01;107881;1256;59089;-78
2023/01/21 10:28:54;;;;;;;21.60;8.10;;;;;;;9.33;63.52;100815.10;108415;1247;62181;-76
2023/01/21 10:31:31;;;;;;;18.00;7.40;;;;;;;9.47;63.66;100820.79;107560;1244;70197;-75
2023/01/21 10:34:04;;;;;;;13.30;7.40;;;;;;;9.47;62.97;100826.18;107480;1250;68444;-73
2023/01/21 10:36:59;;;;;;;15.00;7.40;;;;;;;9.44;63.15;100824.14;108262;1246;74231;-75
2023/01/21 10:40:03;;;;;;;32.00;8.30;;;;;;;9.56;62.96;100822.48;107680;1249;58655;-75
2023/01/21 10:42:57;;;;;;;15.70;7.70;;;;;;;9.87;62.83;100842.49;107407;1255;60490;-77
2023/01/21 10:46:12;;;;;;;12.40;6.40;;;;;;;10.03;61.84;100844.67;107569;1243;63407;-77
2023/01/21 10:49:02;;;;;;;29.80;9.50;;;;;;;10.31;61.57;100850.27;107529;1244;71562;-73
2023/01/21 10:51:47;;;;;;;16.30;8.50;;;;;;;10.46;60.27;100854.31;107274;1256;70639;-72
2023/01/21 10:54:37;;;;;;;15.30;7.70;;;;;;;10.26;59.74;100852.67;107194;1256;62596;-72
2023/01/21 10:57:28;;;;;;;45.10;10.60;;;;;;;10.08;59.86;100856.70;107205;1247;58450;-73
2023/01/21 11:00:01;;;;;;;191.50;26.60;;;;;;;10.36;59.81;100850.61;107203;1250;62119;-71
2023/01/21 11:02:32;;;;;;;37.40;10.00;;;;;;;10.85;59.36;100848.95;107313;1248;63875;-74
2023/01/21 11:05:04;;;;;;;11.00;7.20;;;;;;;11.20;58.29;100853.58;107414;1244;71946;-73
2023/01/21 11:07:43;;;;;;;29.00;9.80;;;;;;;11.47;56.11;100844.97;107233;1248;70091;-71
2023/01/21 11:10:21;;;;;;;53.10;12.30;;;;;;;11.32;57.21;100833.19;107364;1256;63181;-76
2023/01/21 11:12:52;;;;;;;37.40;9.90;;;;;;;11.33;56.43;100829.61;107142;1247;59018;-71
2023/01/21 11:15:23;;;;;;;80.40;14.20;;;;;;;11.22;56.65;100828.84;107138;1249;60841;-71
2023/01/21 11:17:55;;;;;;;23.20;9.50;;;;;;;11.43;55.81;100824.35;107163;1244;72753;-71
2023/01/21 11:20:40;;;;;;;31.90;9.50;;;;;;;11.89;56.34;100829.80;107164;1246;71783;-71
2023/01/21 11:23:57;;;;;;;83.90;16.50;;;;;;;12.01;54.79;100833.58;107239;1245;70505;-70
2023/01/21 11:26:28;;;;;;;18.20;7.30;;;;;;;12.09;54.23;100821.62;106908;1253;63580;-74
2023/01/21 11:29:12;;;;;;;110.50;17.20;;;;;;;12.53;53.23;100823.51;106668;1253;60572;-72
2023/01/21 11:31:44;;;;;;;35.20;9.50;;;;;;;12.74;52.31;100830.50;107026;1244;61103;-71
2023/01/21 11:34:21;;;;;;;35.00;9.70;;;;;;;12.74;51.50;100832.29;107072;1246;62655;-71
2023/01/21 11:37:00;;;;;;;99.00;15.70;;;;;;;13.13;51.34;100835.66;107055;1252;61722;-73
2023/01/21 11:39:34;;;;;;;12.40;7.30;;;;;;;12.97;51.49;100839.14;107288;1244;71033;-70
2023/01/21 11:42:16;;;;;;;113.20;16.70;;;;;;;13.17;49.58;100839.42;107356;1247;73837;-71
2023/01/21 11:45:27;;;;;;;25.30;7.10;;;;;;;13.08;50.31;100843.17;107776;1244;61097;-76
2023/01/21 11:47:58;;;;;;;50.20;10.10;;;;;;;13.18;49.88;100840.68;107374;1245;60072;-77